sensor_id;sensor_type;location;lat;lon;timestamp;pressure;altitude;pressure_sealevel;temperature;humidity
45050;BME280;61798;48.048;-1.928;2023-07-28T00:01:34;100225.13;;;17.33;100.00
45050;BME280;61798;48.048;-1.928;2023-07-28T00:03:39;100216.06;;;17.22;100.00
45050;BME280;61798;48.048;-1.928;2023-07-28T00:05:45;100242.03;;;17.41;100.00
45050;BME280;61798;48.048;-1.928;2023-07-28T00:07:51;100233.84;;;17.36;100.00
45050;BME280;61798;48.048;-1.928;2023-07-28T00:09:58;100202.50;;;17.22;100.00
45050;BME280;61798;48.048;-1.928;2023-07-28T00:12:04;100228.16;;;17.37;100.00
45050;BME280;61798;48.048;-1.928;2023-07-28T00:14:10;100227.59;;;17.35;100.00
45050;BME280;61798;48.048;-1.928;2023-07-28T00:16:16;100231.50;;;17.44;100.00
45050;BME280;61798;48.048;-1.928;2023-07-28T00:18:21;100224.94;;;17.40;100.00
45050;BME280;61798;48.048;-1.928;2023-07-28T00:20:27;100223.34;;;17.39;100.00
45050;BME280;61798;48.048;-1.928;2023-07-28T00:22:33;100221.69;;;17.38;100.00
45050;BME280;61798;48.048;-1.928;2023-07-28T00:24:39;100214.88;;;17.36;100.00
45050;BME280;61798;48.048;-1.928;2023-07-28T00:26:45;100206.50;;;17.37;100.00
45050;BME280;61798;48.048;-1.928;2023-07-28T00:28:51;100215.75;;;17.41;100.00
45050;BME280;61798;48.048;-1.928;2023-07-28T00:30:56;100203.88;;;17.42;100.00
45050;BME280;61798;48.048;-1.928;2023-07-28T00:33:02;100184.38;;;17.23;100.00
45050;BME280;61798;48.048;-1.928;2023-07-28T00:35:08;100219.84;;;17.44;100.00
45050;BME280;61798;48.048;-1.928;2023-07-28T00:37:14;100180.66;;;17.12;100.00
45050;BME280;61798;48.048;-1.928;2023-07-28T00:39:20;100211.84;;;17.32;100.00
45050;BME280;61798;48.048;-1.928;2023-07-28T00:41:25;100208.06;;;17.33;100.00
45050;BME280;61798;48.048;-1.928;2023-07-28T00:43:31;100214.63;;;17.37;100.00
45050;BME280;61798;48.048;-1.928;2023-07-28T00:45:38;100220.13;;;17.42;100.00
45050;BME280;61798;48.048;-1.928;2023-07-28T00:47:44;100192.25;;;17.25;100.00
45050;BME280;61798;48.048;-1.928;2023-07-28T00:49:50;100208.06;;;17.33;100.00
45050;BME280;61798;48.048;-1.928;2023-07-28T00:51:56;100230.13;;;17.42;100.00
45050;BME280;61798;48.048;-1.928;2023-07-28T00:54:03;100209.72;;;17.34;100.00
45050;BME280;61798;48.048;-1.928;2023-07-28T00:56:11;100227.66;;;17.40;100.00
45050;BME280;61798;48.048;-1.928;2023-07-28T00:58:17;100218.72;;;17.40;100.00
45050;BME280;61798;48.048;-1.928;2023-07-28T01:00:23;100213.28;;;17.40;100.00
45050;BME280;61798;48.048;-1.928;2023-07-28T01:02:29;100195.09;;;17.35;100.00
45050;BME280;61798;48.048;-1.928;2023-07-28T01:04:35;100187.97;;;17.29;100.00
45050;BME280;61798;48.048;-1.928;2023-07-28T01:11:06;100203.16;;;17.30;100.00
45050;BME280;61798;48.048;-1.928;2023-07-28T01:13:12;100209.13;;;17.32;100.00
45050;BME280;61798;48.048;-1.928;2023-07-28T01:15:18;100201.44;;;17.23;100.00
45050;BME280;61798;48.048;-1.928;2023-07-28T01:17:24;100191.56;;;17.17;100.00
45050;BME280;61798;48.048;-1.928;2023-07-28T01:19:30;100211.28;;;17.30;100.00
45050;BME280;61798;48.048;-1.928;2023-07-28T01:21:36;100216.78;;;17.35;100.00
45050;BME280;61798;48.048;-1.928;2023-07-28T01:24:01;100225.97;;;17.34;100.00
45050;BME280;61798;48.048;-1.928;2023-07-28T01:26:12;100224.13;;;17.40;100.00
45050;BME280;61798;48.048;-1.928;2023-07-28T01:28:21;100222.00;;;17.42;100.00
45050;BME280;61798;48.048;-1.928;2023-07-28T01:30:27;100212.41;;;17.34;100.00
45050;BME280;61798;48.048;-1.928;2023-07-28T01:32:35;100208.06;;;17.33;100.00
45050;BME280;61798;48.048;-1.928;2023-07-28T01:34:41;100210.78;;;17.33;100.00
45050;BME280;61798;48.048;-1.928;2023-07-28T01:36:47;100208.31;;;17.31;100.00
45050;BME280;61798;48.048;-1.928;2023-07-28T01:38:52;100203.91;;;17.25;100.00
45050;BME280;61798;48.048;-1.928;2023-07-28T01:40:59;100196.84;;;17.24;100.00
45050;BME280;61798;48.048;-1.928;2023-07-28T01:43:05;100208.06;;;17.33;100.00
45050;BME280;61798;48.048;-1.928;2023-07-28T01:45:11;100225.78;;;17.41;100.00
45050;BME280;61798;48.048;-1.928;2023-07-28T01:47:17;100216.00;;;17.40;100.00
45050;BME280;61798;48.048;-1.928;2023-07-28T01:49:23;100210.84;;;17.38;100.00
45050;BME280;61798;48.048;-1.928;2023-07-28T01:51:29;100211.34;;;17.35;100.00
45050;BME280;61798;48.048;-1.928;2023-07-28T01:53:34;100214.94;;;17.41;100.00
45050;BME280;61798;48.048;-1.928;2023-07-28T01:55:40;100209.72;;;17.34;100.00
45050;BME280;61798;48.048;-1.928;2023-07-28T01:57:54;100211.91;;;17.37;100.00
45050;BME280;61798;48.048;-1.928;2023-07-28T02:00:01;100207.00;;;17.34;100.00
45050;BME280;61798;48.048;-1.928;2023-07-28T02:02:09;100200.03;;;17.38;100.00
45050;BME280;61798;48.048;-1.928;2023-07-28T02:04:15;100195.94;;;17.36;100.00
45050;BME280;61798;48.048;-1.928;2023-07-28T02:06:21;100192.94;;;17.37;100.00
45050;BME280;61798;48.048;-1.928;2023-07-28T02:08:27;100179.84;;;17.29;100.00
45050;BME280;61798;48.048;-1.928;2023-07-28T02:10:33;100179.84;;;17.29;100.00
45050;BME280;61798;48.048;-1.928;2023-07-28T02:12:39;100165.16;;;17.25;100.00
45050;BME280;61798;48.048;-1.928;2023-07-28T02:14:45;100163.53;;;17.23;100.00
45050;BME280;61798;48.048;-1.928;2023-07-28T02:16:51;100178.19;;;17.28;100.00
45050;BME280;61798;48.048;-1.928;2023-07-28T02:18:57;100174.09;;;17.25;100.00
45050;BME280;61798;48.048;-1.928;2023-07-28T02:21:03;100177.72;;;17.31;100.00
45050;BME280;61798;48.048;-1.928;2023-07-28T02:23:08;100176.91;;;17.30;100.00
45050;BME280;61798;48.048;-1.928;2023-07-28T02:25:14;100169.75;;;17.24;100.00
45050;BME280;61798;48.048;-1.928;2023-07-28T02:27:21;100184.19;;;17.30;100.00
45050;BME280;61798;48.048;-1.928;2023-07-28T02:29:27;100171.66;;;17.23;100.00
45050;BME280;61798;48.048;-1.928;2023-07-28T02:31:33;100156.06;;;17.13;100.00
45050;BME280;61798;48.048;-1.928;2023-07-28T02:33:38;100180.25;;;17.20;100.00
45050;BME280;61798;48.048;-1.928;2023-07-28T02:35:44;100158.75;;;17.13;100.00
45050;BME280;61798;48.048;-1.928;2023-07-28T02:37:50;100178.19;;;17.28;100.00
45050;BME280;61798;48.048;-1.928;2023-07-28T02:39:56;100169.19;;;17.22;100.00
45050;BME280;61798;48.048;-1.928;2023-07-28T02:42:02;100178.69;;;17.25;100.00
45050;BME280;61798;48.048;-1.928;2023-07-28T02:44:08;100173.59;;;17.28;100.00
45050;BME280;61798;48.048;-1.928;2023-07-28T02:46:14;100155.00;;;17.15;100.00
45050;BME280;61798;48.048;-1.928;2023-07-28T02:48:19;100178.78;;;17.30;100.00
45050;BME280;61798;48.048;-1.928;2023-07-28T02:50:27;100155.56;;;17.17;100.00
45050;BME280;61798;48.048;-1.928;2023-07-28T02:52:32;100180.97;;;17.33;100.00
45050;BME280;61798;48.048;-1.928;2023-07-28T02:54:38;100162.72;;;17.23;100.00
45050;BME280;61798;48.048;-1.928;2023-07-28T02:56:44;100170.34;;;17.26;100.00
45050;BME280;61798;48.048;-1.928;2023-07-28T02:58:50;100178.53;;;17.31;100.00
45050;BME280;61798;48.048;-1.928;2023-07-28T03:00:56;100148.16;;;17.12;100.00
45050;BME280;61798;48.048;-1.928;2023-07-28T03:03:02;100155.41;;;17.23;100.00
45050;BME280;61798;48.048;-1.928;2023-07-28T03:05:08;100171.16;;;17.27;100.00
45050;BME280;61798;48.048;-1.928;2023-07-28T03:07:14;100161.91;;;17.22;100.00
45050;BME280;61798;48.048;-1.928;2023-07-28T03:09:20;100172.78;;;17.28;100.00
45050;BME280;61798;48.048;-1.928;2023-07-28T03:11:26;100175.56;;;17.33;100.00
45050;BME280;61798;48.048;-1.928;2023-07-28T03:13:31;100176.38;;;17.33;100.00
45050;BME280;61798;48.048;-1.928;2023-07-28T03:15:38;100144.41;;;17.13;100.00
45050;BME280;61798;48.048;-1.928;2023-07-28T03:17:44;100140.00;;;17.07;100.00
45050;BME280;61798;48.048;-1.928;2023-07-28T03:19:49;100167.44;;;17.33;100.00
45050;BME280;61798;48.048;-1.928;2023-07-28T03:21:55;100170.97;;;17.33;100.00
45050;BME280;61798;48.048;-1.928;2023-07-28T03:24:01;100156.97;;;17.19;100.00
45050;BME280;61798;48.048;-1.928;2023-07-28T03:26:07;100145.38;;;17.24;100.00
45050;BME280;61798;48.048;-1.928;2023-07-28T03:28:13;100146.13;;;17.19;100.00
45050;BME280;61798;48.048;-1.928;2023-07-28T03:30:18;100163.66;;;17.34;100.00
45050;BME280;61798;48.048;-1.928;2023-07-28T03:32:24;100151.63;;;17.25;100.00
45050;BME280;61798;48.048;-1.928;2023-07-28T03:34:30;100157.34;;;17.28;100.00
45050;BME280;61798;48.048;-1.928;2023-07-28T03:36:36;100140.41;;;17.16;100.00
45050;BME280;61798;48.048;-1.928;2023-07-28T03:38:42;100143.41;;;17.19;100.00
45050;BME280;61798;48.048;-1.928;2023-07-28T03:40:48;100143.91;;;17.16;100.00
45050;BME280;61798;48.048;-1.928;2023-07-28T03:42:54;100153.66;;;17.17;100.00
45050;BME280;61798;48.048;-1.928;2023-07-28T03:45:00;100138.44;;;17.11;100.00
45050;BME280;61798;48.048;-1.928;2023-07-28T03:47:06;100160.56;;;17.25;100.00
45050;BME280;61798;48.048;-1.928;2023-07-28T03:49:11;100144.16;;;17.15;100.00
45050;BME280;61798;48.048;-1.928;2023-07-28T03:51:18;100160.38;;;17.32;100.00
45050;BME280;61798;48.048;-1.928;2023-07-28T03:53:24;100135.47;;;17.12;100.00
45050;BME280;61798;48.048;-1.928;2023-07-28T03:55:30;100139.56;;;17.15;100.00
45050;BME280;61798;48.048;-1.928;2023-07-28T03:57:35;100154.09;;;17.26;100.00
45050;BME280;61798;48.048;-1.928;2023-07-28T03:59:41;100125.41;;;17.08;100.00
45050;BME280;61798;48.048;-1.928;2023-07-28T04:01:47;100163.59;;;17.29;100.00
45050;BME280;61798;48.048;-1.928;2023-07-28T04:03:53;100148.34;;;17.22;100.00
45050;BME280;61798;48.048;-1.928;2023-07-28T04:05:59;100132.69;;;17.07;100.00
45050;BME280;61798;48.048;-1.928;2023-07-28T04:08:05;100159.50;;;17.26;100.00
45050;BME280;61798;48.048;-1.928;2023-07-28T04:10:11;100161.72;;;17.29;100.00
45050;BME280;61798;48.048;-1.928;2023-07-28T04:12:17;100163.09;;;17.32;100.00
45050;BME280;61798;48.048;-1.928;2023-07-28T04:14:22;100166.38;;;17.34;100.00
45050;BME280;61798;48.048;-1.928;2023-07-28T04:16:28;100152.72;;;17.23;100.00
45050;BME280;61798;48.048;-1.928;2023-07-28T04:18:34;100161.91;;;17.22;100.00
45050;BME280;61798;48.048;-1.928;2023-07-28T04:20:40;100162.44;;;17.25;100.00
45050;BME280;61798;48.048;-1.928;2023-07-28T04:22:46;100170.66;;;17.30;100.00
45050;BME280;61798;48.048;-1.928;2023-07-28T04:24:52;100158.59;;;17.20;100.00
45050;BME280;61798;48.048;-1.928;2023-07-28T04:26:59;100168.44;;;17.27;100.00
45050;BME280;61798;48.048;-1.928;2023-07-28T04:29:05;100159.66;;;17.19;100.00
45050;BME280;61798;48.048;-1.928;2023-07-28T04:31:11;100149.06;;;17.18;100.00
45050;BME280;61798;48.048;-1.928;2023-07-28T04:33:17;100142.53;;;17.13;100.00
45050;BME280;61798;48.048;-1.928;2023-07-28T04:35:23;100147.09;;;17.13;100.00
45050;BME280;61798;48.048;-1.928;2023-07-28T04:37:29;100162.44;;;17.25;100.00
45050;BME280;61798;48.048;-1.928;2023-07-28T04:39:35;100139.50;;;17.10;100.00
45050;BME280;61798;48.048;-1.928;2023-07-28T04:41:40;100160.84;;;17.23;100.00
45050;BME280;61798;48.048;-1.928;2023-07-28T04:43:47;100165.66;;;17.21;100.00
45050;BME280;61798;48.048;-1.928;2023-07-28T04:45:52;100148.75;;;17.14;100.00
45050;BME280;61798;48.048;-1.928;2023-07-28T04:47:58;100158.91;;;17.24;100.00
45050;BME280;61798;48.048;-1.928;2023-07-28T04:50:04;100147.09;;;17.13;100.00
45050;BME280;61798;48.048;-1.928;2023-07-28T04:52:11;100169.00;;;17.29;100.00
45050;BME280;61798;48.048;-1.928;2023-07-28T04:54:17;100158.69;;;17.26;100.00
45050;BME280;61798;48.048;-1.928;2023-07-28T04:56:22;100153.44;;;17.19;100.00
45050;BME280;61798;48.048;-1.928;2023-07-28T04:58:28;100151.31;;;17.21;100.00
45050;BME280;61798;48.048;-1.928;2023-07-28T05:00:34;100138.16;;;17.12;100.00
45050;BME280;61798;48.048;-1.928;2023-07-28T05:02:40;100163.03;;;17.27;100.00
45050;BME280;61798;48.048;-1.928;2023-07-28T05:04:46;100162.44;;;17.25;100.00
45050;BME280;61798;48.048;-1.928;2023-07-28T05:06:52;100151.31;;;17.21;100.00
45050;BME280;61798;48.048;-1.928;2023-07-28T05:08:57;100146.38;;;17.18;100.00
45050;BME280;61798;48.048;-1.928;2023-07-28T05:11:03;100147.19;;;17.18;100.00
45050;BME280;61798;48.048;-1.928;2023-07-28T05:13:09;100142.44;;;17.08;100.00
45050;BME280;61798;48.048;-1.928;2023-07-28T05:15:15;100119.81;;;16.97;100.00
45050;BME280;61798;48.048;-1.928;2023-07-28T05:17:21;100133.25;;;17.09;100.00
45050;BME280;61798;48.048;-1.928;2023-07-28T05:19:27;100157.19;;;17.18;100.00
45050;BME280;61798;48.048;-1.928;2023-07-28T05:21:33;100155.97;;;17.26;100.00
45050;BME280;61798;48.048;-1.928;2023-07-28T05:23:38;100144.09;;;17.09;100.00
45050;BME280;61798;48.048;-1.928;2023-07-28T05:25:44;100170.16;;;17.33;100.00
45050;BME280;61798;48.048;-1.928;2023-07-28T05:27:50;100172.84;;;17.33;100.00
45050;BME280;61798;48.048;-1.928;2023-07-28T05:29:56;100142.38;;;17.20;100.00
45050;BME280;61798;48.048;-1.928;2023-07-28T05:32:02;100146.06;;;17.14;100.00
45050;BME280;61798;48.048;-1.928;2023-07-28T05:34:09;100169.00;;;17.29;100.00
45050;BME280;61798;48.048;-1.928;2023-07-28T05:36:17;100172.31;;;17.31;100.00
45050;BME280;61798;48.048;-1.928;2023-07-28T05:38:23;100160.56;;;17.25;100.00
45050;BME280;61798;48.048;-1.928;2023-07-28T05:40:29;100176.38;;;17.33;100.00
45050;BME280;61798;48.048;-1.928;2023-07-28T05:42:35;100173.44;;;17.35;100.00
45050;BME280;61798;48.048;-1.928;2023-07-28T05:44:41;100173.13;;;17.31;100.00
45050;BME280;61798;48.048;-1.928;2023-07-28T05:46:47;100170.66;;;17.30;100.00
45050;BME280;61798;48.048;-1.928;2023-07-28T05:48:55;100161.78;;;17.35;100.00
45050;BME280;61798;48.048;-1.928;2023-07-28T05:51:01;100173.50;;;17.40;100.00
45050;BME280;61798;48.048;-1.928;2023-07-28T05:53:07;100168.34;;;17.39;100.00
45050;BME280;61798;48.048;-1.928;2023-07-28T05:55:13;100158.81;;;17.36;100.00
45050;BME280;61798;48.048;-1.928;2023-07-28T05:57:19;100162.94;;;17.39;100.00
45050;BME280;61798;48.048;-1.928;2023-07-28T05:59:24;100151.47;;;17.31;100.00
45050;BME280;61798;48.048;-1.928;2023-07-28T06:01:30;100153.72;;;17.40;100.00
45050;BME280;61798;48.048;-1.928;2023-07-28T06:03:37;100187.31;;;17.61;100.00
45050;BME280;61798;48.048;-1.928;2023-07-28T06:05:43;100171.47;;;17.53;100.00
45050;BME280;61798;48.048;-1.928;2023-07-28T06:07:48;100175.97;;;17.64;100.00
45050;BME280;61798;48.048;-1.928;2023-07-28T06:09:54;100164.50;;;17.57;100.00
45050;BME280;61798;48.048;-1.928;2023-07-28T06:12:00;100163.97;;;17.60;100.00
45050;BME280;61798;48.048;-1.928;2023-07-28T06:14:06;100192.34;;;17.75;100.00
45050;BME280;61798;48.048;-1.928;2023-07-28T06:16:13;100193.16;;;17.75;100.00
45050;BME280;61798;48.048;-1.928;2023-07-28T06:18:18;100194.25;;;17.74;100.00
45050;BME280;61798;48.048;-1.928;2023-07-28T06:20:24;100178.75;;;17.70;100.00
45050;BME280;61798;48.048;-1.928;2023-07-28T06:22:30;100194.66;;;17.89;100.00
45050;BME280;61798;48.048;-1.928;2023-07-28T06:24:36;100185.38;;;17.79;100.00
45050;BME280;61798;48.048;-1.928;2023-07-28T06:26:42;100178.50;;;17.71;100.00
45050;BME280;61798;48.048;-1.928;2023-07-28T06:28:47;100197.06;;;17.85;100.00
45050;BME280;61798;48.048;-1.928;2023-07-28T06:30:54;100190.56;;;17.86;100.00
45050;BME280;61798;48.048;-1.928;2023-07-28T06:33:00;100180.94;;;17.73;100.00
45050;BME280;61798;48.048;-1.928;2023-07-28T06:35:08;100198.19;;;17.89;100.00
45050;BME280;61798;48.048;-1.928;2023-07-28T06:37:15;100170.16;;;17.78;100.00
45050;BME280;61798;48.048;-1.928;2023-07-28T06:39:20;100183.19;;;17.81;100.00
45050;BME280;61798;48.048;-1.928;2023-07-28T06:41:26;100185.41;;;17.84;100.00
45050;BME280;61798;48.048;-1.928;2023-07-28T06:43:32;100158.19;;;17.74;100.00
45050;BME280;61798;48.048;-1.928;2023-07-28T06:45:38;100191.94;;;17.89;100.00
45050;BME280;61798;48.048;-1.928;2023-07-28T06:47:44;100176.44;;;17.84;100.00
45050;BME280;61798;48.048;-1.928;2023-07-28T06:49:50;100182.75;;;17.90;100.00
45050;BME280;61798;48.048;-1.928;2023-07-28T06:51:55;100165.91;;;17.88;100.00
45050;BME280;61798;48.048;-1.928;2023-07-28T06:54:01;100164.22;;;17.81;100.00
45050;BME280;61798;48.048;-1.928;2023-07-28T06:56:07;100179.84;;;17.96;100.00
45050;BME280;61798;48.048;-1.928;2023-07-28T06:58:13;100156.09;;;17.81;100.00
45050;BME280;61798;48.048;-1.928;2023-07-28T07:00:19;100159.63;;;17.82;100.00
45050;BME280;61798;48.048;-1.928;2023-07-28T07:02:25;100177.41;;;17.95;100.00
45050;BME280;61798;48.048;-1.928;2023-07-28T07:04:31;100170.34;;;17.94;100.00
45050;BME280;61798;48.048;-1.928;2023-07-28T07:06:36;100175.31;;;18.02;100.00
45050;BME280;61798;48.048;-1.928;2023-07-28T07:08:42;100163.78;;;17.90;100.00
45050;BME280;61798;48.048;-1.928;2023-07-28T07:10:50;100192.69;;;18.06;100.00
45050;BME280;61798;48.048;-1.928;2023-07-28T07:12:56;100162.66;;;17.85;100.00
45050;BME280;61798;48.048;-1.928;2023-07-28T07:15:02;100194.84;;;18.04;100.00
45050;BME280;61798;48.048;-1.928;2023-07-28T07:17:08;100196.53;;;18.11;100.00
45050;BME280;61798;48.048;-1.928;2023-07-28T07:19:14;100170.72;;;18.03;100.00
45050;BME280;61798;48.048;-1.928;2023-07-28T07:21:21;100175.19;;;17.92;100.00
45050;BME280;61798;48.048;-1.928;2023-07-28T07:23:27;100201.13;;;18.10;100.00
45050;BME280;61798;48.048;-1.928;2023-07-28T07:25:33;100193.78;;;18.05;100.00
45050;BME280;61798;48.048;-1.928;2023-07-28T07:27:39;100190.50;;;18.03;100.00
45050;BME280;61798;48.048;-1.928;2023-07-28T07:29:45;100203.09;;;18.15;100.00
45050;BME280;61798;48.048;-1.928;2023-07-28T07:31:51;100199.81;;;18.13;100.00
45050;BME280;61798;48.048;-1.928;2023-07-28T07:34:01;100193.78;;;18.05;100.00
45050;BME280;61798;48.048;-1.928;2023-07-28T07:36:17;100208.75;;;18.13;100.00
45050;BME280;61798;48.048;-1.928;2023-07-28T07:38:23;100205.28;;;18.18;100.00
45050;BME280;61798;48.048;-1.928;2023-07-28T07:40:29;100209.69;;;18.24;100.00
45050;BME280;61798;48.048;-1.928;2023-07-28T07:42:48;100197.22;;;18.23;100.00
45050;BME280;61798;48.048;-1.928;2023-07-28T07:44:54;100196.75;;;18.32;100.00
45050;BME280;61798;48.048;-1.928;2023-07-28T07:47:00;100193.56;;;18.35;100.00
45050;BME280;61798;48.048;-1.928;2023-07-28T07:49:07;100192.66;;;18.57;100.00
45050;BME280;61798;48.048;-1.928;2023-07-28T07:51:14;100188.81;;;18.53;100.00
45050;BME280;61798;48.048;-1.928;2023-07-28T07:53:20;100189.94;;;18.57;100.00
45050;BME280;61798;48.048;-1.928;2023-07-28T07:55:26;100176.16;;;18.64;100.00
45050;BME280;61798;48.048;-1.928;2023-07-28T07:57:32;100191.09;;;18.66;100.00
45050;BME280;61798;48.048;-1.928;2023-07-28T07:59:37;100145.56;;;18.41;100.00
45050;BME280;61798;48.048;-1.928;2023-07-28T08:01:43;100194.31;;;18.63;100.00
45050;BME280;61798;48.048;-1.928;2023-07-28T08:03:50;100173.00;;;18.77;100.00
45050;BME280;61798;48.048;-1.928;2023-07-28T08:05:58;100177.09;;;18.80;100.00
45050;BME280;61798;48.048;-1.928;2023-07-28T08:08:04;100179.78;;;18.75;100.00
45050;BME280;61798;48.048;-1.928;2023-07-28T08:10:13;100161.22;;;18.61;100.00
45050;BME280;61798;48.048;-1.928;2023-07-28T08:12:18;100160.66;;;18.59;100.00
45050;BME280;61798;48.048;-1.928;2023-07-28T08:14:24;100182.84;;;18.89;100.00
45050;BME280;61798;48.048;-1.928;2023-07-28T08:16:30;100157.97;;;18.64;100.00
45050;BME280;61798;48.048;-1.928;2023-07-28T08:18:36;100154.78;;;18.73;100.00
45050;BME280;61798;48.048;-1.928;2023-07-28T08:20:42;100154.53;;;18.79;100.00
45050;BME280;61798;48.048;-1.928;2023-07-28T08:22:48;100166.84;;;18.92;100.00
45050;BME280;61798;48.048;-1.928;2023-07-28T08:24:53;100166.66;;;19.05;100.00
45050;BME280;61798;48.048;-1.928;2023-07-28T08:26:59;100139.38;;;19.27;100.00
45050;BME280;61798;48.048;-1.928;2023-07-28T08:29:05;100176.94;;;19.41;100.00
45050;BME280;61798;48.048;-1.928;2023-07-28T08:31:11;100176.84;;;19.25;100.00
45050;BME280;61798;48.048;-1.928;2023-07-28T08:33:16;100169.78;;;19.24;100.00
45050;BME280;61798;48.048;-1.928;2023-07-28T08:35:22;100178.94;;;19.61;100.00
45050;BME280;61798;48.048;-1.928;2023-07-28T08:37:28;100179.53;;;19.79;100.00
45050;BME280;61798;48.048;-1.928;2023-07-28T08:39:34;100168.69;;;19.90;100.00
45050;BME280;61798;48.048;-1.928;2023-07-28T08:41:40;100184.75;;;19.96;100.00
45050;BME280;61798;48.048;-1.928;2023-07-28T08:43:46;100141.97;;;19.60;100.00
45050;BME280;61798;48.048;-1.928;2023-07-28T08:45:53;100170.19;;;19.49;100.00
45050;BME280;61798;48.048;-1.928;2023-07-28T08:47:59;100167.44;;;19.43;100.00
45050;BME280;61798;48.048;-1.928;2023-07-28T08:50:06;100166.44;;;19.65;100.00
45050;BME280;61798;48.048;-1.928;2023-07-28T08:52:15;100165.94;;;19.84;100.00
45050;BME280;61798;48.048;-1.928;2023-07-28T08:54:21;100162.13;;;19.80;100.00
45050;BME280;61798;48.048;-1.928;2023-07-28T08:56:28;100139.81;;;19.73;100.00
45050;BME280;61798;48.048;-1.928;2023-07-28T08:58:35;100162.19;;;20.06;100.00
45050;BME280;61798;48.048;-1.928;2023-07-28T09:00:41;100161.34;;;19.90;100.00
45050;BME280;61798;48.048;-1.928;2023-07-28T09:02:49;100164.66;;;20.13;100.00
45050;BME280;61798;48.048;-1.928;2023-07-28T09:04:56;100147.84;;;20.22;100.00
45050;BME280;61798;48.048;-1.928;2023-07-28T09:07:04;100136.69;;;20.28;100.00
45050;BME280;61798;48.048;-1.928;2023-07-28T09:09:10;100136.69;;;20.49;100.00
45050;BME280;61798;48.048;-1.928;2023-07-28T09:11:16;100124.72;;;20.40;100.00
45050;BME280;61798;48.048;-1.928;2023-07-28T09:13:22;100129.31;;;20.39;100.00
45050;BME280;61798;48.048;-1.928;2023-07-28T09:15:35;100136.41;;;20.56;100.00
45050;BME280;61798;48.048;-1.928;2023-07-28T09:17:44;100113.56;;;20.26;100.00
45050;BME280;61798;48.048;-1.928;2023-07-28T09:19:52;100145.66;;;20.50;100.00
45050;BME280;61798;48.048;-1.928;2023-07-28T09:22:00;100141.88;;;20.46;100.00
45050;BME280;61798;48.048;-1.928;2023-07-28T09:24:08;100121.97;;;20.19;100.00
45050;BME280;61798;48.048;-1.928;2023-07-28T09:26:15;100148.41;;;20.50;100.00
45050;BME280;61798;48.048;-1.928;2023-07-28T09:28:21;100119.78;;;20.16;100.00
45050;BME280;61798;48.048;-1.928;2023-07-28T09:30:43;100146.19;;;20.31;100.00
45050;BME280;61798;48.048;-1.928;2023-07-28T09:32:54;100163.31;;;20.26;100.00
45050;BME280;61798;48.048;-1.928;2023-07-28T09:35:14;100151.63;;;20.21;100.00
45050;BME280;61798;48.048;-1.928;2023-07-28T09:37:20;100145.91;;;20.27;100.00
45050;BME280;61798;48.048;-1.928;2023-07-28T09:39:26;100155.47;;;20.41;100.00
45050;BME280;61798;48.048;-1.928;2023-07-28T09:41:35;100120.63;;;20.37;100.00
45050;BME280;61798;48.048;-1.928;2023-07-28T09:43:41;100116.53;;;20.56;100.00
45050;BME280;61798;48.048;-1.928;2023-07-28T09:45:49;100121.97;;;20.61;100.00
45050;BME280;61798;48.048;-1.928;2023-07-28T09:47:57;100161.72;;;20.62;100.00
45050;BME280;61798;48.048;-1.928;2023-07-28T09:50:06;100163.06;;;20.54;100.00
45050;BME280;61798;48.048;-1.928;2023-07-28T09:52:14;100158.16;;;20.35;100.00
45050;BME280;61798;48.048;-1.928;2023-07-28T09:54:24;100170.16;;;20.45;100.00
45050;BME280;61798;48.048;-1.928;2023-07-28T09:56:33;100166.31;;;20.35;100.00
45050;BME280;61798;48.048;-1.928;2023-07-28T09:58:44;100169.88;;;20.57;100.00
45050;BME280;61798;48.048;-1.928;2023-07-28T10:00:55;100166.34;;;20.25;100.00
45050;BME280;61798;48.048;-1.928;2023-07-28T10:03:02;100156.50;;;20.18;100.00
45050;BME280;61798;48.048;-1.928;2023-07-28T10:05:08;100172.31;;;20.27;100.00
45050;BME280;61798;48.048;-1.928;2023-07-28T10:07:16;100152.19;;;20.17;100.00
45050;BME280;61798;48.048;-1.928;2023-07-28T10:09:26;100177.78;;;20.48;100.00
45050;BME280;61798;48.048;-1.928;2023-07-28T10:11:32;100169.06;;;20.46;100.00
45050;BME280;61798;48.048;-1.928;2023-07-28T10:13:43;100181.84;;;20.40;100.00
45050;BME280;61798;48.048;-1.928;2023-07-28T10:15:50;100185.66;;;20.34;100.00
45050;BME280;61798;48.048;-1.928;2023-07-28T10:17:57;100165.25;;;20.26;100.00
45050;BME280;61798;48.048;-1.928;2023-07-28T10:20:09;100200.63;;;20.42;100.00
45050;BME280;61798;48.048;-1.928;2023-07-28T10:22:33;100179.88;;;20.09;100.00
45050;BME280;61798;48.048;-1.928;2023-07-28T10:24:52;100200.84;;;20.19;100.00
45050;BME280;61798;48.048;-1.928;2023-07-28T10:26:58;100176.06;;;20.15;100.00
45050;BME280;61798;48.048;-1.928;2023-07-28T10:29:10;100176.66;;;20.23;100.00
45050;BME280;61798;48.048;-1.928;2023-07-28T10:31:29;100178.31;;;20.55;100.00
45050;BME280;61798;48.048;-1.928;2023-07-28T10:33:37;100189.47;;;20.64;100.00
45050;BME280;61798;48.048;-1.928;2023-07-28T10:35:49;100187.00;;;20.78;100.00
45050;BME280;61798;48.048;-1.928;2023-07-28T10:37:55;100184.03;;;20.80;100.00
45050;BME280;61798;48.048;-1.928;2023-07-28T10:42:31;100167.28;;;21.39;100.00
45050;BME280;61798;48.048;-1.928;2023-07-28T10:44:37;100180.34;;;21.48;100.00
45050;BME280;61798;48.048;-1.928;2023-07-28T10:46:43;100153.50;;;21.09;100.00
45050;BME280;61798;48.048;-1.928;2023-07-28T10:48:50;100193.00;;;21.17;100.00
45050;BME280;61798;48.048;-1.928;2023-07-28T10:50:56;100179.63;;;20.95;100.00
45050;BME280;61798;48.048;-1.928;2023-07-28T10:53:01;100185.66;;;20.81;100.00